Time;durP1;ratioP1;P1;durP2;ratioP2;P2;SDS_P1;SDS_P2;PMS_P1;PMS_P2;Temp;Humidity;BMP_temperature;BMP_pressure;BME280_temperature;BME280_humidity;BME280_pressure;Samples;Min_cycle;Max_cycle;Signal;HPM_P1;HPM_P2
2022/10/16 00:00:48;;;;;;;;;;;;;;;18.37;49.74;100876.47;5313693;32;854957;-73
2022/10/16 00:03:50;;;;;;;;;;;;;;;17.62;51.33;100882.03;5358534;32;34611;-73
2022/10/16 00:06:51;;;;;;;;;;;;;;;17.83;50.74;100870.13;5325964;32;34897;-76
2022/10/16 00:09:53;;;;;;;;;;;;;;;18.01;50.36;100870.78;5346040;32;35430;-77
2022/10/16 00:12:55;;;;;;;;;;;;;;;18.31;49.50;100874.19;5350114;32;37810;-73
2022/10/16 00:15:58;;;;;;;;;;;;;;;17.53;51.57;100871.03;5341197;32;35109;-75
2022/10/16 00:19:00;;;;;;;;;;;;;;;17.92;50.55;100868.72;5360222;32;35003;-73
2022/10/16 00:22:01;;;;;;;;;;;;;;;18.36;49.62;100869.44;5342774;32;35352;-76
2022/10/16 00:25:04;;;;;;;;;;;;;;;18.32;49.62;100869.72;5335773;32;35024;-73
2022/10/16 00:28:05;;;;;;;;;;;;;;;18.67;48.56;100878.97;5341570;32;35005;-75
2022/10/16 00:31:08;;;;;;;;;;;;;;;17.86;50.60;100881.44;5343780;32;35791;-72
2022/10/16 00:34:10;;;;;;;;;;;;;;;18.18;49.85;100889.22;5336520;32;35011;-77
2022/10/16 00:37:12;;;;;;;;;;;;;;;18.59;48.74;100891.06;5341603;32;34125;-72
2022/10/16 00:40:14;;;;;;;;;;;;;;;18.85;47.79;100892.91;5345380;32;34212;-73
2022/10/16 00:43:33;;;;;;;;;;;;;;;18.76;47.97;100898.84;5329422;32;35222;-79
2022/10/16 00:46:37;;;;;;;;;;;;;;;17.64;50.60;100896.94;5359508;32;37210;-73
2022/10/16 00:49:39;;;;;;;;;;;;;;;18.48;48.45;100894.37;5328575;32;35540;-74
2022/10/16 00:52:42;;;;;;;;;;;;;;;18.82;47.13;100887.78;5342470;32;34307;-76
2022/10/16 00:55:43;;;;;;;;;;;;;;;18.86;47.01;100896.41;5359606;32;35408;-72
2022/10/16 00:58:45;;;;;;;;;;;;;;;18.60;47.57;100901.59;5341313;32;34169;-72
2022/10/16 01:01:47;;;;;;;;;;;;;;;18.66;47.32;100898.56;5361374;32;34817;-73
2022/10/16 01:04:50;;;;;;;;;;;;;;;18.33;48.05;100906.88;5327759;32;35035;-77
2022/10/16 01:07:52;;;;;;;;;;;;;;;18.50;47.79;100911.13;5343071;32;35625;-77
2022/10/16 01:10:57;;;;;;;;;;;;;;;18.47;47.89;100915.78;5346415;32;35220;-76
2022/10/16 01:14:00;;;;;;;;;;;;;;;18.13;48.81;100905.47;5340027;32;44444;-77
2022/10/16 01:17:06;;;;;;;;;;;;;;;18.41;48.18;100909.03;5347543;32;34482;-72
2022/10/16 01:20:08;;;;;;;;;;;;;;;18.09;48.74;100911.06;5339912;32;35669;-73
2022/10/16 01:23:22;;;;;;;;;;;;;;;18.33;48.41;100914.00;5347092;32;35107;-73
2022/10/16 01:26:30;;;;;;;;;;;;;;;17.42;50.76;100921.28;5330015;32;35592;-76
2022/10/16 01:29:34;;;;;;;;;;;;;;;17.53;50.10;100926.00;5343725;32;46337;-76
2022/10/16 01:32:38;;;;;;;;;;;;;;;17.88;48.80;100921.22;5351553;32;35509;-76
2022/10/16 01:35:44;;;;;;;;;;;;;;;17.73;49.22;100922.16;5340469;32;35586;-73
2022/10/16 01:38:47;;;;;;;;;;;;;;;16.34;53.03;100935.41;5345502;32;35140;-74
2022/10/16 01:41:49;;;;;;;;;;;;;;;17.29;50.91;100928.28;5327820;32;35751;-76
2022/10/16 01:44:51;;;;;;;;;;;;;;;16.98;51.10;100929.19;5337492;32;34177;-73
2022/10/16 01:47:53;;;;;;;;;;;;;;;16.51;52.52;100925.59;5343248;32;36762;-76
2022/10/16 01:50:58;;;;;;;;;;;;;;;17.49;49.87;100930.62;5325897;32;44707;-73
2022/10/16 01:54:01;;;;;;;;;;;;;;;17.11;51.03;100940.81;5359556;32;35006;-74
2022/10/16 01:57:04;;;;;;;;;;;;;;;17.24;50.67;100947.12;5327509;32;34990;-77
2022/10/16 02:00:07;;;;;;;;;;;;;;;17.41;49.76;100950.62;5344312;32;34927;-74
2022/10/16 02:03:09;;;;;;;;;;;;;;;17.37;50.01;100952.59;5343059;32;35065;-77
2022/10/16 02:06:11;;;;;;;;;;;;;;;17.99;48.29;100950.69;5341512;32;34491;-74
2022/10/16 02:09:15;;;;;;;;;;;;;;;17.68;48.96;100953.44;5328886;32;35103;-76
2022/10/16 02:12:27;;;;;;;;;;;;;;;17.12;50.44;100961.12;5341080;32;34182;-74
2022/10/16 02:15:29;;;;;;;;;;;;;;;17.26;50.02;100961.22;5343851;32;44571;-73
2022/10/16 02:18:31;;;;;;;;;;;;;;;16.82;51.36;100960.22;5340351;32;35325;-72
2022/10/16 02:21:39;;;;;;;;;;;;;;;17.19;50.56;100964.28;5358613;32;34832;-73
2022/10/16 02:24:41;;;;;;;;;;;;;;;17.71;49.05;100946.19;5325047;32;34671;-75
2022/10/16 02:28:02;;;;;;;;;;;;;;;17.87;48.51;100952.28;5346587;32;35546;-77
2022/10/16 02:31:04;;;;;;;;;;;;;;;17.74;48.85;100947.78;5353832;32;44748;-72
2022/10/16 02:34:06;;;;;;;;;;;;;;;17.60;49.08;100948.59;5322955;32;35146;-72
2022/10/16 02:37:10;;;;;;;;;;;;;;;17.48;48.86;100939.53;5343114;32;34127;-75
2022/10/16 02:40:12;;;;;;;;;;;;;;;17.43;49.09;100962.87;5325736;32;34298;-76
2022/10/16 02:43:13;;;;;;;;;;;;;;;16.85;50.65;100962.69;5353431;32;35388;-75
2022/10/16 02:46:16;;;;;;;;;;;;;;;17.08;49.99;100972.87;5331437;32;34947;-75
2022/10/16 02:49:18;;;;;;;;;;;;;;;16.91;50.40;100967.66;5314489;32;34397;-76
2022/10/16 02:52:20;;;;;;;;;;;;;;;17.10;49.66;100960.34;5359717;32;35189;-72
2022/10/16 02:55:22;;;;;;;;;;;;;;;17.16;49.51;100969.78;5326518;32;34270;-75
2022/10/16 02:58:24;;;;;;;;;;;;;;;16.74;50.68;100969.47;5359197;32;33436;-72
2022/10/16 03:01:25;;;;;;;;;;;;;;;16.84;50.39;100966.28;5341041;32;44361;-73
2022/10/16 03:04:27;;;;;;;;;;;;;;;16.83;50.54;100969.91;5356202;32;34845;-74
2022/10/16 03:07:29;;;;;;;;;;;;;;;16.88;50.50;100973.16;5344374;32;34718;-76
2022/10/16 03:10:31;;;;;;;;;;;;;;;16.62;51.13;100977.22;5339270;32;35005;-73
2022/10/16 03:13:33;;;;;;;;;;;;;;;15.00;56.04;100981.06;5357847;32;35934;-73
2022/10/16 03:16:35;;;;;;;;;;;;;;;15.49;55.43;100983.97;5327371;32;35080;-77
2022/10/16 03:19:37;;;;;;;;;;;;;;;16.57;51.92;100979.25;5356546;32;34974;-71
2022/10/16 03:22:38;;;;;;;;;;;;;;;16.81;50.91;100979.72;5341463;32;34398;-77
2022/10/16 03:25:40;;;;;;;;;;;;;;;16.91;50.61;100991.56;5317479;32;34457;-73
2022/10/16 03:28:42;;;;;;;;;;;;;;;16.49;51.79;100985.00;5341967;32;35209;-73
2022/10/16 03:31:44;;;;;;;;;;;;;;;16.72;50.94;100991.72;5335224;32;35344;-76
2022/10/16 03:34:46;;;;;;;;;;;;;;;16.59;51.03;100999.44;5337958;32;34211;-76
2022/10/16 03:37:48;;;;;;;;;;;;;;;16.68;50.85;101006.94;5339475;32;35408;-74
2022/10/16 03:40:50;;;;;;;;;;;;;;;16.12;52.31;101008.16;5343762;32;34209;-72
2022/10/16 03:43:52;;;;;;;;;;;;;;;15.55;53.96;101014.59;5339065;32;34350;-76
2022/10/16 03:46:54;;;;;;;;;;;;;;;16.44;51.46;101016.22;5356058;32;34926;-72
2022/10/16 03:49:56;;;;;;;;;;;;;;;16.08;52.22;101011.91;5328990;32;45773;-75
2022/10/16 03:52:58;;;;;;;;;;;;;;;15.72;54.05;101017.31;5342404;32;35213;-72
2022/10/16 03:56:00;;;;;;;;;;;;;;;15.18;56.09;101019.91;5345721;32;35418;-75
2022/10/16 03:59:02;;;;;;;;;;;;;;;15.36;55.65;101025.25;5341799;32;34409;-76
2022/10/16 04:02:04;;;;;;;;;;;;;;;16.08;52.74;101019.84;5346270;32;35004;-76
2022/10/16 04:05:06;;;;;;;;;;;;;;;16.51;50.97;101015.78;5329896;32;36024;-76
2022/10/16 04:08:07;;;;;;;;;;;;;;;16.60;50.45;101009.13;5358026;32;35321;-76
2022/10/16 04:11:09;;;;;;;;;;;;;;;16.57;50.54;101019.06;5333633;32;35860;-76
2022/10/16 04:14:11;;;;;;;;;;;;;;;16.53;50.39;101021.88;5342511;32;35515;-76
2022/10/16 04:17:13;;;;;;;;;;;;;;;16.02;52.14;101032.56;5361519;32;34264;-75
2022/10/16 04:20:15;;;;;;;;;;;;;;;16.32;51.26;101032.78;5339951;32;34238;-75
2022/10/16 04:23:17;;;;;;;;;;;;;;;16.60;50.22;101026.84;5337169;32;34121;-72
2022/10/16 04:26:19;;;;;;;;;;;;;;;15.87;51.96;101029.78;5315754;32;35210;-72
2022/10/16 04:29:20;;;;;;;;;;;;;;;16.21;51.01;101028.03;5353604;32;34300;-76
2022/10/16 04:32:22;;;;;;;;;;;;;;;16.22;50.76;101025.28;5343496;32;35662;-76
2022/10/16 04:35:24;;;;;;;;;;;;;;;16.04;50.97;101028.91;5337535;32;34396;-73
2022/10/16 04:38:26;;;;;;;;;;;;;;;15.82;51.76;101023.84;5359106;32;45465;-73
2022/10/16 04:41:28;;;;;;;;;;;;;;;14.49;55.69;101038.16;5340901;32;34371;-72
2022/10/16 04:44:30;;;;;;;;;;;;;;;15.07;54.49;101040.75;5358277;32;34283;-73
2022/10/16 04:47:32;;;;;;;;;;;;;;;14.97;54.55;101036.81;5343316;32;36274;-73
2022/10/16 04:50:34;;;;;;;;;;;;;;;14.99;53.98;101049.97;5354468;32;34817;-76
2022/10/16 04:53:36;;;;;;;;;;;;;;;14.80;54.71;101045.53;5346843;32;34414;-77
2022/10/16 04:56:45;;;;;;;;;;;;;;;14.42;55.97;101046.38;5327303;32;34237;-73
2022/10/16 04:59:48;;;;;;;;;;;;;;;15.01;55.24;101054.28;5344073;32;33416;-73
2022/10/16 05:02:50;;;;;;;;;;;;;;;14.80;55.96;101063.19;5341507;32;35389;-76
2022/10/16 05:05:52;;;;;;;;;;;;;;;14.66;56.78;101061.19;5344461;32;34318;-73
2022/10/16 05:08:54;;;;;;;;;;;;;;;14.16;58.70;101058.94;5343939;32;34674;-75
2022/10/16 05:11:56;;;;;;;;;;;;;;;14.63;57.19;101070.13;5337966;32;44170;-76
2022/10/16 05:14:58;;;;;;;;;;;;;;;14.16;58.17;101064.22;5336062;32;34363;-72
2022/10/16 05:18:00;;;;;;;;;;;;;;;15.54;52.83;101058.78;5337493;32;34465;-72
2022/10/16 05:21:02;;;;;;;;;;;;;;;15.91;51.15;101057.00;5345318;32;34094;-72
2022/10/16 05:24:04;;;;;;;;;;;;;;;15.78;51.29;101064.72;5319785;32;34759;-72
2022/10/16 05:27:06;;;;;;;;;;;;;;;15.76;51.17;101065.69;5351832;32;35527;-76
2022/10/16 05:30:08;;;;;;;;;;;;;;;15.90;50.94;101073.81;5327945;32;34346;-72
2022/10/16 05:33:13;;;;;;;;;;;;;;;16.02;50.68;101080.28;5345071;32;35389;-76
2022/10/16 05:36:15;;;;;;;;;;;;;;;16.07;50.21;101078.28;5340856;32;35931;-75
2022/10/16 05:39:16;;;;;;;;;;;;;;;15.78;50.86;101085.03;5340036;32;34487;-76
2022/10/16 05:42:18;;;;;;;;;;;;;;;14.47;55.38;101086.72;5359192;32;35195;-75
2022/10/16 05:45:20;;;;;;;;;;;;;;;15.87;51.50;101085.44;5340739;32;34259;-72
2022/10/16 05:48:23;;;;;;;;;;;;;;;15.34;52.96;101082.75;5357201;32;35032;-77
2022/10/16 05:51:24;;;;;;;;;;;;;;;16.58;49.83;101085.31;5329404;32;34388;-77
2022/10/16 05:54:26;;;;;;;;;;;;;;;16.55;49.97;101090.81;5328895;32;44470;-73
2022/10/16 05:57:28;;;;;;;;;;;;;;;17.20;48.18;101083.75;5354725;32;35577;-73
2022/10/16 06:00:30;;;;;;;;;;;;;;;17.17;47.65;101080.38;5340470;32;34433;-73
2022/10/16 06:03:32;;;;;;;;;;;;;;;17.53;47.13;101075.66;5358327;32;34592;-77
2022/10/16 06:06:36;;;;;;;;;;;;;;;18.13;45.26;101096.16;5322842;32;34986;-78
2022/10/16 06:09:38;;;;;;;;;;;;;;;18.26;45.15;101107.78;5355193;32;34368;-77
2022/10/16 06:12:39;;;;;;;;;;;;;;;18.73;43.75;101106.72;5341602;32;34826;-76
2022/10/16 06:15:41;;;;;;;;;;;;;;;19.61;41.90;101110.91;5345792;32;34525;-72
2022/10/16 06:18:43;;;;;;;;;;;;;;;19.36;42.21;101106.28;5338933;32;35793;-73
2022/10/16 06:21:45;;;;;;;;;;;;;;;20.66;38.99;101110.09;5322371;32;34294;-73
2022/10/16 06:24:47;;;;;;;;;;;;;;;19.74;41.32;101110.97;5333601;32;34875;-78
2022/10/16 06:27:49;;;;;;;;;;;;;;;19.62;41.67;101106.44;5340953;32;36247;-76
2022/10/16 06:30:58;;;;;;;;;;;;;;;21.43;37.60;101110.84;5352708;32;34250;-80
2022/10/16 06:34:10;;;;;;;;;;;;;;;21.13;38.16;101104.06;5325048;32;35430;-75
2022/10/16 06:37:12;;;;;;;;;;;;;;;19.29;42.01;101133.44;5325900;32;35365;-76
2022/10/16 06:40:14;;;;;;;;;;;;;;;18.64;43.48;101139.22;5357792;32;33548;-72
2022/10/16 06:43:16;;;;;;;;;;;;;;;19.39;41.59;101140.75;5340240;32;34175;-76
2022/10/16 06:46:18;;;;;;;;;;;;;;;18.98;43.04;101150.47;5358292;32;34616;-77
2022/10/16 06:49:22;;;;;;;;;;;;;;;20.15;40.25;101148.22;5340787;32;34704;-76
2022/10/16 06:52:24;;;;;;;;;;;;;;;21.50;37.45;101147.72;5342562;32;34185;-77
2022/10/16 06:55:26;;;;;;;;;;;;;;;21.25;37.72;101151.31;5331206;32;44526;-76
2022/10/16 06:58:28;;;;;;;;;;;;;;;20.32;39.55;101149.75;5340320;32;34908;-73
2022/10/16 07:01:30;;;;;;;;;;;;;;;21.51;36.80;101143.22;5358891;32;34300;-73
2022/10/16 07:04:32;;;;;;;;;;;;;;;22.03;35.60;101150.94;5341219;32;34323;-76
2022/10/16 07:07:34;;;;;;;;;;;;;;;21.58;36.51;101158.72;5342302;32;34213;-76
2022/10/16 07:10:36;;;;;;;;;;;;;;;21.29;37.26;101174.19;5326245;32;35294;-73
2022/10/16 07:13:39;;;;;;;;;;;;;;;21.81;36.51;101166.88;5340440;32;34582;-76
2022/10/16 07:16:41;;;;;;;;;;;;;;;20.50;38.63;101177.06;5345349;32;34745;-73
2022/10/16 07:19:44;;;;;;;;;;;;;;;22.80;34.35;101174.53;5335148;32;34607;-74
2022/10/16 07:22:46;;;;;;;;;;;;;;;20.97;38.05;101178.25;5352193;32;34634;-76
2022/10/16 07:25:53;;;;;;;;;;;;;;;22.04;35.12;101182.09;5303631;32;33994;-72
2022/10/16 07:28:55;;;;;;;;;;;;;;;21.00;37.09;101186.94;5340469;32;35323;-76
2022/10/16 07:31:57;;;;;;;;;;;;;;;19.65;40.22;101189.75;5336340;32;44637;-73
2022/10/16 07:34:59;;;;;;;;;;;;;;;18.81;42.58;101207.47;5347206;32;34291;-76
2022/10/16 07:38:01;;;;;;;;;;;;;;;17.54;45.81;101226.22;5347456;32;35245;-72
2022/10/16 07:41:04;;;;;;;;;;;;;;;17.44;46.17;101221.47;5326522;32;35115;-76
2022/10/16 07:44:06;;;;;;;;;;;;;;;16.94;47.58;101219.75;5355700;32;35065;-78
2022/10/16 07:47:08;;;;;;;;;;;;;;;18.56;43.64;101216.03;5341963;32;36743;-72
2022/10/16 07:50:10;;;;;;;;;;;;;;;17.60;45.65;101222.38;5355291;32;35396;-73
2022/10/16 07:53:11;;;;;;;;;;;;;;;18.88;42.67;101222.97;5341202;32;35483;-76
2022/10/16 07:56:13;;;;;;;;;;;;;;;18.37;43.74;101227.75;5348879;32;34238;-72
2022/10/16 07:59:15;;;;;;;;;;;;;;;18.32;44.29;101223.63;5335049;32;34885;-79
2022/10/16 08:02:17;;;;;;;;;;;;;;;17.62;45.78;101223.13;5325887;32;34150;-72
2022/10/16 08:05:19;;;;;;;;;;;;;;;17.93;45.41;101226.78;5356647;32;34241;-73
2022/10/16 08:08:21;;;;;;;;;;;;;;;17.74;45.72;101226.94;5338333;32;36328;-78
2022/10/16 08:11:23;;;;;;;;;;;;;;;16.88;47.69;101236.00;5355819;32;35510;-71
2022/10/16 08:14:25;;;;;;;;;;;;;;;17.20;47.76;101231.66;5328582;32;46903;-76
2022/10/16 08:17:27;;;;;;;;;;;;;;;17.33;47.18;101238.88;5347533;32;35022;-74
2022/10/16 08:20:30;;;;;;;;;;;;;;;17.55;46.81;101232.38;5335422;32;34967;-73
2022/10/16 08:23:32;;;;;;;;;;;;;;;18.39;44.49;101233.84;5328514;32;36036;-74
2022/10/16 08:26:34;;;;;;;;;;;;;;;18.14;45.12;101247.69;5330710;32;35563;-72
2022/10/16 08:29:36;;;;;;;;;;;;;;;17.41;46.58;101253.53;5339798;32;34977;-78
2022/10/16 08:32:38;;;;;;;;;;;;;;;16.99;48.54;101258.38;5350029;32;35492;-73
2022/10/16 08:35:40;;;;;;;;;;;;;;;17.61;46.83;101250.66;5325502;32;35163;-73
2022/10/16 08:38:42;;;;;;;;;;;;;;;17.35;47.27;101269.81;5346457;32;33882;-76
2022/10/16 08:42:02;;;;;;;;;;;;;;;17.94;45.86;101268.38;5340330;32;34418;-76
2022/10/16 08:45:07;;;;;;;;;;;;;;;17.31;47.13;101262.00;5341985;32;45323;-77
2022/10/16 08:48:30;;;;;;;;;;;;;;;16.52;49.76;101274.03;5357668;32;34729;-76
2022/10/16 08:51:36;;;;;;;;;;;;;;;17.52;47.27;101267.13;5316704;32;44729;-76
2022/10/16 08:54:43;;;;;;;;;;;;;;;17.53;47.06;101258.19;5331322;32;34184;-72
2022/10/16 08:57:45;;;;;;;;;;;;;;;17.47;47.62;101256.72;5355686;32;35014;-72
2022/10/16 09:00:48;;;;;;;;;;;;;;;17.21;48.53;101275.88;5327140;32;37172;-76
2022/10/16 09:03:53;;;;;;;;;;;;;;;17.33;48.01;101272.56;5344883;32;32540;-76
2022/10/16 09:07:00;;;;;;;;;;;;;;;17.21;48.35;101265.25;5346331;32;35124;-77
2022/10/16 09:10:02;;;;;;;;;;;;;;;17.37;48.28;101273.25;5341630;32;44430;-74
2022/10/16 09:13:37;;;;;;;;;;;;;;;17.49;47.41;101275.25;5343047;32;34989;-73
2022/10/16 09:16:40;;;;;;;;;;;;;;;17.54;48.02;101274.06;5316052;32;34496;-77
2022/10/16 09:19:44;;;;;;;;;;;;;;;18.54;45.18;101281.78;5342380;32;34342;-78
2022/10/16 09:22:46;;;;;;;;;;;;;;;18.98;43.75;101276.53;5343591;32;34296;-72
2022/10/16 09:25:49;;;;;;;;;;;;;;;19.68;42.12;101261.56;5338624;32;34371;-78
2022/10/16 09:28:51;;;;;;;;;;;;;;;18.57;44.93;101268.31;5342142;32;35294;-77
2022/10/16 09:31:53;;;;;;;;;;;;;;;19.47;43.00;101261.06;5325999;32;34540;-73
2022/10/16 09:34:56;;;;;;;;;;;;;;;19.60;42.39;101250.53;5338769;32;37722;-75
2022/10/16 09:37:58;;;;;;;;;;;;;;;18.76;44.71;101268.97;5340761;32;34489;-74
2022/10/16 09:41:00;;;;;;;;;;;;;;;19.05;44.02;101272.53;5343723;32;34994;-77
2022/10/16 09:44:05;;;;;;;;;;;;;;;19.16;43.88;101266.56;5328407;32;34652;-78
2022/10/16 09:47:14;;;;;;;;;;;;;;;18.40;45.68;101272.78;5344226;32;34781;-75
2022/10/16 09:50:24;;;;;;;;;;;;;;;18.42;46.00;101278.06;5329600;32;35018;-73
2022/10/16 09:53:35;;;;;;;;;;;;;;;19.56;43.70;101269.44;5326498;32;46054;-76
2022/10/16 09:56:39;;;;;;;;;;;;;;;19.39;44.09;101274.03;5345115;32;34824;-78
2022/10/16 09:59:51;;;;;;;;;;;;;;;19.46;43.69;101271.84;5328427;32;34260;-74
2022/10/16 10:02:53;;;;;;;;;;;;;;;19.54;43.87;101276.69;5358407;32;35389;-75
2022/10/16 10:05:55;;;;;;;;;;;;;;;21.56;39.05;101267.63;5329687;32;44281;-73
2022/10/16 10:09:06;;;;;;;;;;;;;;;23.35;35.25;101281.03;5340774;32;44576;-78
2022/10/16 10:12:16;;;;;;;;;;;;;;;24.52;33.34;101270.66;5359688;32;34286;-78
2022/10/16 10:15:23;;;;;;;;;;;;;;;25.40;31.33;101264.06;5329425;32;35445;-74
2022/10/16 10:18:26;;;;;;;;;;;;;;;26.76;28.86;101257.13;5343213;32;35674;-75
2022/10/16 10:21:28;;;;;;;;;;;;;;;25.43;31.01;101242.25;5343830;32;34405;-74
2022/10/16 10:24:29;;;;;;;;;;;;;;;23.51;34.99;101249.34;5333180;32;34369;-78
2022/10/16 10:27:51;;;;;;;;;;;;;;;24.96;32.10;101239.16;5331708;32;35717;-74
2022/10/16 10:30:56;;;;;;;;;;;;;;;24.68;32.58;101248.72;5322681;32;36554;-78
2022/10/16 10:34:05;;;;;;;;;;;;;;;24.44;32.95;101245.41;5346431;32;44744;-73
2022/10/16 10:37:16;;;;;;;;;;;;;;;24.82;31.86;101243.03;5329091;32;35013;-73
2022/10/16 10:40:28;;;;;;;;;;;;;;;24.37;33.18;101244.22;5354574;32;34220;-78
2022/10/16 10:43:30;;;;;;;;;;;;;;;24.09;33.57;101240.25;5333391;32;44738;-77
2022/10/16 10:46:34;;;;;;;;;;;;;;;22.96;35.87;101245.66;5342285;32;34270;-75
2022/10/16 10:49:39;;;;;;;;;;;;;;;24.37;32.95;101234.34;5341714;32;35706;-76
2022/10/16 10:52:50;;;;;;;;;;;;;;;24.13;33.26;101233.66;5342315;32;34654;-79
2022/10/16 10:56:04;;;;;;;;;;;;;;;23.93;33.74;101246.03;5353007;32;36226;-78
2022/10/16 10:59:06;;;;;;;;;;;;;;;23.48;34.32;101235.31;5339587;32;34473;-76
2022/10/16 11:02:10;;;;;;;;;;;;;;;22.89;35.57;101230.16;5340396;32;34514;-72
2022/10/16 11:05:16;;;;;;;;;;;;;;;21.69;37.86;101240.84;5357438;32;36793;-72
2022/10/16 11:08:19;;;;;;;;;;;;;;;20.79;39.99;101252.50;5340024;32;34192;-76
2022/10/16 11:11:25;;;;;;;;;;;;;;;22.26;37.41;101240.25;5344250;32;34143;-77
2022/10/16 11:14:39;;;;;;;;;;;;;;;21.45;38.77;101248.84;5327048;32;44652;-77
2022/10/16 11:17:53;;;;;;;;;;;;;;;22.29;37.32;101234.69;5320865;32;34764;-76
2022/10/16 11:21:00;;;;;;;;;;;;;;;23.11;36.06;101218.59;5336687;32;35682;-73
2022/10/16 11:24:04;;;;;;;;;;;;;;;22.92;36.42;101216.50;5321360;32;44574;-77
2022/10/16 11:27:08;;;;;;;;;;;;;;;27.37;28.54;101207.25;5350585;32;35596;-80
2022/10/16 11:30:29;;;;;;;;;;;;;;;28.14;27.13;101205.97;5324221;32;36488;-77
2022/10/16 11:33:35;;;;;;;;;;;;;;;25.96;30.15;101207.03;5340869;32;45257;-74
2022/10/16 11:36:41;;;;;;;;;;;;;;;23.77;33.96;101207.03;5336411;32;35023;-76
2022/10/16 11:39:43;;;;;;;;;;;;;;;24.09;33.86;101200.84;5326362;32;34672;-74
2022/10/16 11:42:46;;;;;;;;;;;;;;;23.49;35.17;101211.03;5353205;32;34540;-74
2022/10/16 11:45:52;;;;;;;;;;;;;;;23.80;34.08;101200.56;5328881;32;35347;-77
2022/10/16 11:49:00;;;;;;;;;;;;;;;23.77;33.98;101208.88;5340187;32;34930;-74
2022/10/16 11:52:14;;;;;;;;;;;;;;;22.31;36.82;101210.47;5342104;32;45870;-77
2022/10/16 11:55:31;;;;;;;;;;;;;;;22.48;36.41;101215.41;5325828;32;34900;-75
2022/10/16 11:58:34;;;;;;;;;;;;;;;22.91;35.76;101214.81;5365133;32;45004;-77
2022/10/16 12:01:38;;;;;;;;;;;;;;;22.85;36.20;101209.87;5328014;32;34222;-77
2022/10/16 12:04:45;;;;;;;;;;;;;;;23.08;35.47;101213.50;5340765;32;35495;-73
2022/10/16 12:07:52;;;;;;;;;;;;;;;22.63;36.44;101208.03;5327043;32;35795;-71
2022/10/16 12:11:03;;;;;;;;;;;;;;;22.72;36.43;101204.62;5345070;32;34717;-78
2022/10/16 12:14:05;;;;;;;;;;;;;;;22.77;36.24;101204.28;5343535;32;36005;-74
2022/10/16 12:17:19;;;;;;;;;;;;;;;23.99;33.93;101191.84;5342735;32;35487;-76
2022/10/16 12:20:25;;;;;;;;;;;;;;;23.21;35.22;101199.00;5357085;32;35764;-77
2022/10/16 12:23:27;;;;;;;;;;;;;;;23.87;33.90;101191.00;5331861;32;46339;-76
2022/10/16 12:26:33;;;;;;;;;;;;;;;23.22;34.76;101183.75;5327181;32;35335;-73
2022/10/16 12:29:38;;;;;;;;;;;;;;;23.05;35.44;101194.94;5350469;32;35484;-73
2022/10/16 12:32:40;;;;;;;;;;;;;;;23.93;33.70;101186.97;5339726;32;35304;-72
2022/10/16 12:35:50;;;;;;;;;;;;;;;22.29;37.17;101191.84;5351544;32;34009;-75
2022/10/16 12:38:52;;;;;;;;;;;;;;;23.45;35.10;101187.28;5331949;32;34480;-79
2022/10/16 12:42:02;;;;;;;;;;;;;;;24.09;33.75;101184.72;5354195;32;35402;-72
2022/10/16 12:45:21;;;;;;;;;;;;;;;25.27;31.54;101183.56;5341145;32;44529;-78
2022/10/16 12:48:23;;;;;;;;;;;;;;;24.52;31.72;101183.81;5339509;32;34948;-78
2022/10/16 12:51:38;;;;;;;;;;;;;;;24.85;31.86;101185.44;5345632;32;35624;-79
2022/10/16 12:54:41;;;;;;;;;;;;;;;23.24;34.98;101179.97;5328344;32;35241;-78
2022/10/16 12:57:49;;;;;;;;;;;;;;;24.24;33.60;101188.81;5358817;32;35174;-74
2022/10/16 13:00:54;;;;;;;;;;;;;;;24.34;33.00;101182.69;5337152;32;34577;-77
2022/10/16 13:04:14;;;;;;;;;;;;;;;25.20;31.03;101185.09;5343998;32;44664;-77
2022/10/16 13:07:27;;;;;;;;;;;;;;;25.54;30.58;101187.47;5358922;32;34255;-74
2022/10/16 13:10:39;;;;;;;;;;;;;;;27.92;26.69;101191.91;5341741;32;44350;-73
2022/10/16 13:13:49;;;;;;;;;;;;;;;28.09;26.23;101189.41;5356179;32;34515;-73
2022/10/16 13:16:54;;;;;;;;;;;;;;;28.09;26.50;101194.81;5324645;32;34359;-77
2022/10/16 13:20:14;;;;;;;;;;;;;;;31.01;22.92;101187.00;5339120;32;34997;-77
2022/10/16 13:23:25;;;;;;;;;;;;;;;32.73;20.67;101177.84;5348127;32;34296;-76
2022/10/16 13:26:40;;;;;;;;;;;;;;;34.36;18.90;101176.53;5316898;32;46335;-78
2022/10/16 13:29:42;;;;;;;;;;;;;;;34.52;18.79;101177.31;5355594;32;36658;-78
2022/10/16 13:32:45;;;;;;;;;;;;;;;36.43;16.70;101179.22;5333994;32;34734;-78
2022/10/16 13:35:49;;;;;;;;;;;;;;;34.37;18.55;101191.00;5341022;32;35362;-77
2022/10/16 13:39:20;;;;;;;;;;;;;;;36.13;16.91;101173.28;5355843;32;34561;-78
2022/10/16 13:42:23;;;;;;;;;;;;;;;35.41;17.45;101180.19;5331822;32;35886;-73
2022/10/16 13:45:29;;;;;;;;;;;;;;;33.90;18.81;101181.50;5342691;32;44026;-73
2022/10/16 13:48:32;;;;;;;;;;;;;;;34.62;17.82;101175.09;5338852;32;34267;-74
2022/10/16 13:51:33;;;;;;;;;;;;;;;29.83;22.58;101185.63;5346298;32;34382;-78
2022/10/16 13:54:35;;;;;;;;;;;;;;;31.30;20.92;101198.28;5352570;32;35770;-73
2022/10/16 13:57:37;;;;;;;;;;;;;;;29.01;23.63;101206.06;5344648;32;34765;-79
2022/10/16 14:00:39;;;;;;;;;;;;;;;25.49;28.80;101211.25;5356970;32;35513;-74
2022/10/16 14:03:41;;;;;;;;;;;;;;;25.78;28.65;101206.00;5341498;32;35368;-77
2022/10/16 14:06:44;;;;;;;;;;;;;;;25.36;29.43;101214.16;5343721;32;35230;-78
2022/10/16 14:09:48;;;;;;;;;;;;;;;25.11;29.88;101213.63;5340474;32;34583;-79
2022/10/16 14:12:59;;;;;;;;;;;;;;;24.41;31.28;101217.00;5337706;32;34248;-74
2022/10/16 14:16:03;;;;;;;;;;;;;;;24.85;30.57;101206.94;5356290;32;45494;-75
2022/10/16 14:19:09;;;;;;;;;;;;;;;24.09;31.87;101208.03;5341821;32;34547;-78
2022/10/16 14:22:23;;;;;;;;;;;;;;;23.21;33.49;101214.25;5343622;32;34715;-78
2022/10/16 14:25:28;;;;;;;;;;;;;;;23.43;32.82;101205.31;5305670;32;44978;-74
2022/10/16 14:28:30;;;;;;;;;;;;;;;23.67;32.65;101211.44;5322149;32;35520;-77
2022/10/16 14:31:33;;;;;;;;;;;;;;;23.23;33.21;101215.81;5345621;32;35082;-77
2022/10/16 14:34:36;;;;;;;;;;;;;;;23.20;33.33;101209.84;5323371;32;35320;-79
2022/10/16 14:37:38;;;;;;;;;;;;;;;23.01;33.85;101213.13;5357045;32;34870;-73
2022/10/16 14:40:45;;;;;;;;;;;;;;;23.42;33.62;101208.97;5327762;32;34700;-79
2022/10/16 14:43:49;;;;;;;;;;;;;;;23.33;33.84;101199.00;5340466;32;34475;-76
2022/10/16 14:46:53;;;;;;;;;;;;;;;22.85;34.72;101217.94;5328161;32;35312;-77
2022/10/16 14:49:57;;;;;;;;;;;;;;;23.18;33.84;101223.34;5329570;32;34294;-77
2022/10/16 14:52:59;;;;;;;;;;;;;;;23.33;33.56;101221.31;5355966;32;45194;-73
2022/10/16 14:56:05;;;;;;;;;;;;;;;23.29;33.80;101219.84;5327334;32;35438;-78
2022/10/16 14:59:08;;;;;;;;;;;;;;;23.30;33.73;101221.53;5355334;32;34948;-78
2022/10/16 15:02:29;;;;;;;;;;;;;;;23.43;32.91;101210.69;5324641;32;35217;-74
2022/10/16 15:05:32;;;;;;;;;;;;;;;22.63;34.30;101218.75;5334317;32;44200;-73
2022/10/16 15:08:33;;;;;;;;;;;;;;;22.66;34.39;101218.50;5344456;32;35523;-78
2022/10/16 15:11:35;;;;;;;;;;;;;;;22.71;34.69;101214.50;5341858;32;35263;-74
2022/10/16 15:14:37;;;;;;;;;;;;;;;23.13;33.87;101214.84;5355343;32;35470;-75
2022/10/16 15:17:39;;;;;;;;;;;;;;;21.83;36.56;101224.69;5327850;32;34713;-73
2022/10/16 15:20:41;;;;;;;;;;;;;;;22.91;34.54;101231.75;5356492;32;35197;-77
2022/10/16 15:23:43;;;;;;;;;;;;;;;22.88;34.54;101245.38;5312146;32;35991;-77
2022/10/16 15:26:49;;;;;;;;;;;;;;;22.87;34.63;101246.38;5324912;32;34345;-73
2022/10/16 15:29:50;;;;;;;;;;;;;;;22.55;35.28;101248.81;5334810;32;35955;-77
2022/10/16 15:32:53;;;;;;;;;;;;;;;22.79;34.70;101251.41;5329359;32;35729;-73
2022/10/16 15:35:55;;;;;;;;;;;;;;;22.26;36.02;101250.13;5342026;32;35135;-77
2022/10/16 15:38:57;;;;;;;;;;;;;;;21.65;37.14;101249.22;5326465;32;47375;-76
2022/10/16 15:41:59;;;;;;;;;;;;;;;21.49;37.71;101252.97;5356099;32;34970;-78
2022/10/16 15:45:01;;;;;;;;;;;;;;;22.36;35.74;101253.84;5339759;32;35603;-74